sim
Sign-in with your pilot id or email,
or register
Callsign
Passwort

Schedule Details

Flight Number: OEO4874
Departure: Dortmund Airport (EDLW) at 04:00
Arrival: Fuerteventura Airport (GCFV) at 08:45

Weather Information
Getting current METAR information for EDLW 211720Z VRB02KT CAVOK 21/08 Q1027
Getting current METAR information for GCFV 211730Z 02017KT 350V050 CAVOK 27/18 Q1013

Schedule Frequency

Route Map